createdAt,value
2019-03-27T00:01:48.856Z,9.78
2019-03-27T00:04:21.520Z,12.78
2019-03-27T00:06:54.336Z,8.65
2019-03-27T00:09:27.201Z,12.78
2019-03-27T00:12:00.199Z,12.15
2019-03-27T00:14:32.806Z,7.35
2019-03-27T00:17:06.100Z,10.85
2019-03-27T00:19:38.856Z,13.55
2019-03-27T00:22:11.626Z,12.28
2019-03-27T00:24:44.656Z,13.08
2019-03-27T00:27:17.851Z,13.18
2019-03-27T00:29:50.958Z,8.23
2019-03-27T00:32:23.759Z,14.05
2019-03-27T00:34:56.587Z,8.20
2019-03-27T00:37:29.409Z,8.00
2019-03-27T00:40:01.952Z,7.47
2019-03-27T00:42:34.626Z,8.05
2019-03-27T00:45:08.746Z,8.18
2019-03-27T00:47:41.376Z,11.75
2019-03-27T00:50:14.916Z,10.65
2019-03-27T00:52:47.685Z,8.68
2019-03-27T00:55:20.786Z,9.85
2019-03-27T00:57:53.456Z,8.63
2019-03-27T01:00:29.616Z,8.18
2019-03-27T01:03:02.226Z,8.68
2019-03-27T01:05:34.977Z,11.63
2019-03-27T01:08:07.893Z,8.53
2019-03-27T01:10:40.680Z,11.90
2019-03-27T01:13:13.326Z,7.37
2019-03-27T01:15:45.836Z,10.80
2019-03-27T01:18:18.576Z,8.08
2019-03-27T01:20:52.365Z,8.70
2019-03-27T01:23:25.156Z,7.78
2019-03-27T01:25:57.846Z,12.55
2019-03-27T01:28:30.746Z,7.40
2019-03-27T01:31:03.479Z,10.30
2019-03-27T01:33:36.276Z,6.70
2019-03-27T01:36:08.965Z,9.23
2019-03-27T01:38:41.666Z,8.50
2019-03-27T01:41:14.536Z,9.58
2019-03-27T01:43:47.096Z,9.23
2019-03-27T01:46:19.847Z,11.63
2019-03-27T01:48:52.724Z,8.33
2019-03-27T01:51:25.516Z,10.43
2019-03-27T01:53:58.066Z,10.25
2019-03-27T01:56:30.874Z,8.73
2019-03-27T01:59:03.846Z,10.38
2019-03-27T02:01:36.415Z,8.65
2019-03-27T02:04:09.206Z,9.40
2019-03-27T02:06:42.056Z,8.80
2019-03-27T02:09:14.726Z,12.85
2019-03-27T02:11:47.325Z,8.63
2019-03-27T02:14:19.805Z,10.88
2019-03-27T02:16:52.586Z,8.20
2019-03-27T02:19:25.427Z,12.63
2019-03-27T02:21:58.676Z,6.42
2019-03-27T02:24:31.615Z,7.83
2019-03-27T02:27:05.366Z,7.92
2019-03-27T02:29:37.971Z,8.00
2019-03-27T02:32:10.862Z,7.55
2019-03-27T02:34:43.687Z,8.98
2019-03-27T02:37:16.286Z,8.50
2019-03-27T02:39:49.415Z,10.75
2019-03-27T02:42:22.080Z,8.38
2019-03-27T02:44:54.936Z,12.28
2019-03-27T02:47:28.140Z,8.83
2019-03-27T02:50:01.112Z,9.03
2019-03-27T02:52:34.854Z,11.65
2019-03-27T02:55:07.637Z,9.68
2019-03-27T02:57:40.357Z,19.85
2019-03-27T03:00:13.641Z,10.68
2019-03-27T03:02:46.617Z,12.35
2019-03-27T03:05:19.436Z,10.90
2019-03-27T03:07:52.186Z,11.70
2019-03-27T03:10:25.090Z,12.58
2019-03-27T03:12:57.577Z,13.60
2019-03-27T03:15:30.309Z,9.85
2019-03-27T03:18:03.891Z,12.20
2019-03-27T03:20:36.744Z,9.58
2019-03-27T03:23:09.609Z,10.60
2019-03-27T03:25:42.368Z,6.95
2019-03-27T03:28:14.925Z,9.63
2019-03-27T03:30:47.881Z,8.55
2019-03-27T03:33:20.838Z,10.50
2019-03-27T03:35:53.650Z,7.00
2019-03-27T03:38:26.519Z,11.28
2019-03-27T03:40:59.426Z,8.63
2019-03-27T03:43:32.108Z,7.33
2019-03-27T03:46:05.137Z,6.92
2019-03-27T03:48:38.306Z,13.00
2019-03-27T03:51:11.577Z,9.38
2019-03-27T03:53:44.746Z,12.10
2019-03-27T03:56:17.707Z,11.97
2019-03-27T03:58:50.617Z,12.45
2019-03-27T04:01:25.646Z,8.73
2019-03-27T04:03:59.231Z,10.88
2019-03-27T04:06:32.093Z,11.10
2019-03-27T04:09:05.276Z,14.28
2019-03-27T04:11:38.016Z,10.72
2019-03-27T04:14:10.738Z,11.25
2019-03-27T04:16:44.498Z,9.05
2019-03-27T04:19:17.088Z,11.55
2019-03-27T04:21:51.297Z,6.45
2019-03-27T04:24:24.012Z,11.60
2019-03-27T04:26:56.712Z,7.17
2019-03-27T04:29:29.307Z,11.40
2019-03-27T04:32:02.471Z,7.78
2019-03-27T04:34:35.199Z,5.90
2019-03-27T04:37:09.040Z,11.12
2019-03-27T04:39:41.856Z,10.78
2019-03-27T04:42:14.796Z,8.20
2019-03-27T04:44:48.186Z,12.03
2019-03-27T04:47:32.031Z,10.25
2019-03-27T04:49:55.325Z,10.70
2019-03-27T04:52:28.289Z,13.55
2019-03-27T04:55:00.878Z,12.45
2019-03-27T04:57:33.578Z,9.53
2019-03-27T05:00:07.946Z,13.10
2019-03-27T05:02:40.685Z,9.80
2019-03-27T05:05:13.547Z,11.93
2019-03-27T05:07:46.459Z,8.98
2019-03-27T05:10:21.326Z,9.98
2019-03-27T05:12:54.136Z,7.83
2019-03-27T05:15:27.076Z,13.35
2019-03-27T05:17:59.786Z,7.80
2019-03-27T05:20:32.576Z,10.45
2019-03-27T05:23:05.655Z,7.35
2019-03-27T05:25:38.273Z,10.55
2019-03-27T05:28:11.318Z,6.75
2019-03-27T05:30:44.036Z,10.85
2019-03-27T05:33:16.915Z,10.82
2019-03-27T05:35:49.736Z,8.38
2019-03-27T05:38:22.516Z,10.03
2019-03-27T05:40:55.284Z,11.38
2019-03-27T05:43:28.036Z,10.48
2019-03-27T05:46:00.787Z,10.72
2019-03-27T05:48:33.409Z,12.40
2019-03-27T05:51:06.076Z,8.83
2019-03-27T05:53:38.805Z,14.35
2019-03-27T05:56:11.867Z,11.20
2019-03-27T05:58:44.927Z,13.22
2019-03-27T06:01:17.556Z,11.50
2019-03-27T06:03:50.476Z,11.93
2019-03-27T06:06:23.321Z,9.93
2019-03-27T06:08:55.986Z,15.90
2019-03-27T06:11:28.836Z,11.85
2019-03-27T06:14:01.648Z,12.80
2019-03-27T06:16:34.565Z,9.58
2019-03-27T06:19:07.334Z,13.38
2019-03-27T06:21:40.096Z,8.33
2019-03-27T06:24:12.994Z,10.43
2019-03-27T06:26:45.713Z,8.35
2019-03-27T06:29:18.636Z,11.65
2019-03-27T06:31:51.114Z,8.55
2019-03-27T06:34:24.215Z,7.92
2019-03-27T06:36:57.047Z,13.32
2019-03-27T06:39:29.764Z,9.33
2019-03-27T06:42:03.059Z,8.70
2019-03-27T06:44:36.026Z,8.90
2019-03-27T06:47:08.806Z,10.30
2019-03-27T06:49:41.806Z,8.80
2019-03-27T06:52:14.771Z,10.72
2019-03-27T06:54:47.546Z,9.73
2019-03-27T06:57:21.006Z,11.95
2019-03-27T06:59:53.607Z,9.70
2019-03-27T07:02:28.911Z,9.93
2019-03-27T07:05:00.956Z,10.88
2019-03-27T07:07:33.635Z,10.48
2019-03-27T07:10:06.986Z,10.28
2019-03-27T07:12:39.635Z,10.20
2019-03-27T07:15:12.419Z,11.70
2019-03-27T07:17:45.060Z,11.35
2019-03-27T07:20:17.509Z,11.12
2019-03-27T07:22:50.106Z,10.28
2019-03-27T07:25:22.795Z,8.10
2019-03-27T07:27:55.647Z,9.68
2019-03-27T07:30:28.266Z,7.58
2019-03-27T07:33:01.056Z,10.60
2019-03-27T07:35:33.736Z,12.33
2019-03-27T07:38:08.876Z,7.22
2019-03-27T07:40:41.375Z,8.53
2019-03-27T07:43:14.146Z,8.30
2019-03-27T07:45:46.956Z,9.55
2019-03-27T07:48:20.816Z,11.22
2019-03-27T07:50:53.766Z,9.68
2019-03-27T07:53:26.467Z,9.50
2019-03-27T07:55:59.860Z,8.83
2019-03-27T07:58:32.926Z,9.58
2019-03-27T08:01:05.816Z,7.72
2019-03-27T08:03:38.378Z,8.83
2019-03-27T08:06:11.996Z,8.53
2019-03-27T08:08:44.899Z,11.53
2019-03-27T08:11:17.630Z,9.33
2019-03-27T08:13:50.355Z,9.35
2019-03-27T08:16:25.093Z,6.78
2019-03-27T08:19:07.371Z,8.13
2019-03-27T08:21:32.307Z,5.87
2019-03-27T08:24:05.932Z,6.47
2019-03-27T08:26:38.593Z,6.97
2019-03-27T08:29:11.093Z,6.42
2019-03-27T08:31:43.644Z,6.60
2019-03-27T08:34:16.471Z,7.40
2019-03-27T08:36:51.352Z,6.30
2019-03-27T08:39:23.655Z,8.25
2019-03-27T08:41:56.333Z,6.72
2019-03-27T08:44:28.973Z,8.73
2019-03-27T08:47:01.664Z,9.20
2019-03-27T08:49:34.218Z,12.03
2019-03-27T08:52:07.162Z,8.55
2019-03-27T08:54:40.171Z,11.30
2019-03-27T08:57:12.772Z,10.55
2019-03-27T08:59:45.381Z,13.62
2019-03-27T09:02:18.070Z,9.25
2019-03-27T09:04:50.633Z,13.98
2019-03-27T09:07:23.263Z,9.18
2019-03-27T09:09:55.963Z,10.43
2019-03-27T09:12:28.513Z,9.03
2019-03-27T09:15:00.973Z,10.63
2019-03-27T09:17:33.684Z,8.23
2019-03-27T09:20:07.383Z,75.70
2019-03-27T09:22:40.195Z,4.87
2019-03-27T09:25:12.841Z,8.13
2019-03-27T09:27:45.613Z,5.10
2019-03-27T09:30:18.883Z,8.85
2019-03-27T09:32:51.483Z,4.80
2019-03-27T09:35:23.973Z,5.92
2019-03-27T09:37:56.564Z,4.92
2019-03-27T09:40:29.054Z,5.85
2019-03-27T09:43:01.676Z,4.47
2019-03-27T09:45:34.163Z,4.00
2019-03-27T09:48:06.778Z,4.22
2019-03-27T09:50:39.341Z,3.62
2019-03-27T09:53:11.833Z,2.92
2019-03-27T09:55:44.486Z,2.42
2019-03-27T09:58:17.286Z,2.85
2019-03-27T10:01:06.881Z,2.95
2019-03-27T10:03:39.643Z,2.45
2019-03-27T10:06:12.343Z,2.98
2019-03-27T10:08:44.874Z,3.37
2019-03-27T10:11:17.613Z,3.55
2019-03-27T10:13:50.303Z,3.52
2019-03-27T10:16:22.993Z,3.87
2019-03-27T10:18:55.653Z,5.03
2019-03-27T10:21:28.193Z,4.22
2019-03-27T10:24:00.883Z,4.15
2019-03-27T10:26:33.904Z,2.45
2019-03-27T10:29:09.671Z,3.22
2019-03-27T10:31:42.361Z,2.70
2019-03-27T10:34:14.883Z,2.17
2019-03-27T10:36:47.503Z,2.15
2019-03-27T10:39:20.193Z,2.02
2019-03-27T10:41:52.922Z,2.42
2019-03-27T10:44:25.558Z,1.98
2019-03-27T10:46:58.074Z,1.98
2019-03-27T10:49:34.156Z,2.27
2019-03-27T10:52:05.433Z,2.35
2019-03-27T10:54:38.066Z,2.00
2019-03-27T10:57:10.755Z,2.10
2019-03-27T10:59:43.322Z,2.05
2019-03-27T11:02:15.814Z,2.00
2019-03-27T11:04:48.452Z,2.00
2019-03-27T11:07:21.204Z,1.80
2019-03-27T11:09:53.714Z,2.15
2019-03-27T11:12:26.214Z,1.90
2019-03-27T11:14:58.913Z,1.90
2019-03-27T11:17:31.293Z,2.15
2019-03-27T11:20:03.973Z,2.62
2019-03-27T11:22:36.511Z,1.60
2019-03-27T11:25:09.293Z,1.90
2019-03-27T11:27:41.844Z,2.02
2019-03-27T11:30:14.784Z,3.20
2019-03-27T11:32:47.933Z,1.90
2019-03-27T11:35:20.636Z,2.35
2019-03-27T11:37:53.403Z,2.65
2019-03-27T11:40:26.123Z,2.75
2019-03-27T11:42:58.913Z,3.00
2019-03-27T11:45:31.513Z,2.60
2019-03-27T11:48:08.049Z,3.77
2019-03-27T11:50:45.089Z,3.10
2019-03-27T11:53:13.663Z,5.65
2019-03-27T11:55:46.372Z,3.67
2019-03-27T11:58:19.173Z,6.95
2019-03-27T12:00:54.776Z,5.60
2019-03-27T12:03:26.093Z,8.15
2019-03-27T12:05:58.863Z,7.30
2019-03-27T12:08:31.453Z,6.83
2019-03-27T12:11:04.175Z,3.55
2019-03-27T12:13:36.651Z,3.02
2019-03-27T12:16:09.591Z,2.65
2019-03-27T12:18:42.093Z,2.15
2019-03-27T12:21:15.356Z,2.10
2019-03-27T12:23:47.853Z,2.15
2019-03-27T12:26:20.473Z,1.80
2019-03-27T12:28:53.084Z,2.20
2019-03-27T12:31:25.933Z,1.70
2019-03-27T12:33:58.675Z,1.90
2019-03-27T12:36:31.353Z,1.80
2019-03-27T12:39:05.573Z,2.40
2019-03-27T12:41:38.243Z,2.55
2019-03-27T12:44:10.723Z,2.52
2019-03-27T12:46:43.663Z,2.10
2019-03-27T12:49:16.134Z,2.33
2019-03-27T12:51:48.824Z,1.90
2019-03-27T12:54:21.527Z,1.77
2019-03-27T12:56:54.173Z,2.00
2019-03-27T12:59:26.682Z,2.25
2019-03-27T13:01:59.543Z,2.20
2019-03-27T13:04:32.135Z,2.12
2019-03-27T13:07:04.707Z,1.30
2019-03-27T13:09:37.353Z,2.05
2019-03-27T13:12:10.213Z,1.55
2019-03-27T13:14:42.973Z,1.47
2019-03-27T13:17:15.703Z,1.35
2019-03-27T13:19:48.443Z,1.50
2019-03-27T13:22:22.289Z,1.80
2019-03-27T13:24:54.872Z,1.80
2019-03-27T13:27:27.553Z,1.72
2019-03-27T13:30:02.893Z,1.60
2019-03-27T13:32:35.654Z,1.55
2019-03-27T13:35:09.253Z,1.55
2019-03-27T13:37:42.081Z,1.50
2019-03-27T13:40:15.136Z,1.20
2019-03-27T13:42:47.813Z,1.72
2019-03-27T13:45:21.118Z,1.40
2019-03-27T13:47:53.895Z,1.10
2019-03-27T13:50:26.633Z,1.55
2019-03-27T13:52:59.133Z,1.05
2019-03-27T13:55:35.176Z,0.88
2019-03-27T13:58:06.994Z,1.30
2019-03-27T14:00:39.734Z,1.02
2019-03-27T14:03:12.387Z,1.20
2019-03-27T14:05:45.033Z,1.30
2019-03-27T14:08:21.216Z,1.30
2019-03-27T14:10:53.903Z,1.52
2019-03-27T14:13:26.821Z,1.32
2019-03-27T14:15:59.680Z,1.05
2019-03-27T14:18:32.524Z,1.35
2019-03-27T14:21:05.338Z,1.22
2019-03-27T14:23:37.824Z,1.00
2019-03-27T14:26:10.874Z,1.30
2019-03-27T14:28:44.083Z,1.35
2019-03-27T14:31:16.874Z,1.32
2019-03-27T14:33:49.653Z,1.72
2019-03-27T14:36:23.193Z,1.30
2019-03-27T14:38:55.804Z,1.95
2019-03-27T14:41:28.533Z,1.57
2019-03-27T14:44:01.365Z,1.62
2019-03-27T14:46:33.997Z,1.15
2019-03-27T14:49:07.211Z,1.52
2019-03-27T14:51:39.963Z,1.17
2019-03-27T14:54:12.905Z,1.57
2019-03-27T14:56:45.395Z,1.55
2019-03-27T14:59:18.082Z,1.35
2019-03-27T15:01:50.963Z,1.62
2019-03-27T15:04:23.682Z,1.60
2019-03-27T15:06:56.534Z,1.30
2019-03-27T15:09:29.521Z,2.33
2019-03-27T15:12:02.304Z,3.27
2019-03-27T15:14:35.103Z,3.08
2019-03-27T15:17:07.973Z,2.90
2019-03-27T15:19:40.808Z,2.42
2019-03-27T15:22:22.268Z,2.22
2019-03-27T15:24:48.253Z,2.25
2019-03-27T15:27:20.874Z,2.15
2019-03-27T15:29:54.101Z,2.40
2019-03-27T15:32:28.423Z,1.87
2019-03-27T15:35:01.357Z,2.77
2019-03-27T15:37:36.673Z,3.83
2019-03-27T15:40:09.723Z,3.80
2019-03-27T15:42:42.893Z,2.50
2019-03-27T15:45:15.597Z,2.33
2019-03-27T15:47:48.234Z,2.77
2019-03-27T15:50:20.672Z,2.87
2019-03-27T15:52:53.515Z,3.12
2019-03-27T15:55:26.083Z,2.25
2019-03-27T15:57:58.813Z,2.70
2019-03-27T16:00:34.989Z,3.12
2019-03-27T16:03:07.613Z,3.00
2019-03-27T16:05:40.301Z,3.37
2019-03-27T16:08:12.983Z,2.92
2019-03-27T16:10:46.263Z,2.47
2019-03-27T16:13:19.064Z,2.70
2019-03-27T16:15:52.136Z,3.20
2019-03-27T16:18:25.293Z,3.25
2019-03-27T16:20:58.244Z,2.90
2019-03-27T16:23:32.470Z,2.67
2019-03-27T16:26:05.335Z,3.45
2019-03-27T16:28:37.993Z,3.25
2019-03-27T16:31:11.083Z,2.72
2019-03-27T16:33:44.783Z,2.85
2019-03-27T16:36:17.443Z,2.33
2019-03-27T16:38:50.113Z,2.47
2019-03-27T16:41:22.993Z,2.87
2019-03-27T16:43:55.863Z,2.35
2019-03-27T16:46:28.793Z,5.28
2019-03-27T16:49:01.273Z,4.03
2019-03-27T16:51:33.833Z,3.60
2019-03-27T16:54:06.423Z,3.50
2019-03-27T16:56:38.853Z,3.83
2019-03-27T16:59:11.403Z,3.62
2019-03-27T17:01:44.061Z,3.70
2019-03-27T17:04:16.547Z,5.00
2019-03-27T17:06:49.223Z,5.83
2019-03-27T17:09:22.124Z,5.55
2019-03-27T17:11:54.861Z,6.70
2019-03-27T17:14:28.522Z,13.18
2019-03-27T17:17:01.305Z,11.43
2019-03-27T17:19:33.974Z,12.18
2019-03-27T17:22:18.888Z,10.15
2019-03-27T17:27:47.320Z,12.23
2019-03-27T17:30:19.583Z,8.98
2019-03-27T17:32:52.942Z,32.30
2019-03-27T17:35:25.790Z,10.18
2019-03-27T17:37:59.492Z,11.57
2019-03-27T17:40:32.913Z,10.70
2019-03-27T17:43:05.685Z,13.78
2019-03-27T17:45:38.853Z,12.78
2019-03-27T17:48:11.741Z,14.00
2019-03-27T17:50:44.163Z,12.20
2019-03-27T17:53:30.773Z,15.78
2019-03-27T17:55:57.345Z,16.15
2019-03-27T17:58:33.751Z,13.43
2019-03-27T18:01:06.603Z,12.33
2019-03-27T18:03:39.334Z,17.75
2019-03-27T18:06:12.010Z,13.58
2019-03-27T18:08:44.952Z,15.95
2019-03-27T18:11:17.892Z,16.02
2019-03-27T18:13:50.754Z,18.35
2019-03-27T18:16:23.631Z,17.90
2019-03-27T18:18:56.643Z,19.82
2019-03-27T18:21:29.513Z,17.87
2019-03-27T18:24:02.364Z,21.50
2019-03-27T18:26:34.993Z,20.02
2019-03-27T18:29:07.793Z,22.55
2019-03-27T18:31:40.703Z,21.33
2019-03-27T18:34:13.235Z,19.20
2019-03-27T18:36:46.125Z,24.07
2019-03-27T18:39:18.910Z,21.85
2019-03-27T18:41:51.484Z,19.40
2019-03-27T18:44:24.263Z,24.65
2019-03-27T18:46:56.953Z,23.27
2019-03-27T18:49:29.814Z,27.02
2019-03-27T18:52:02.543Z,21.55
2019-03-27T18:54:35.273Z,27.73
2019-03-27T18:57:08.183Z,16.77
2019-03-27T18:59:42.133Z,18.70
2019-03-27T19:02:15.198Z,16.80
2019-03-27T19:04:48.582Z,16.87
2019-03-27T19:07:21.460Z,20.52
2019-03-27T19:09:54.383Z,19.35
2019-03-27T19:12:27.412Z,20.23
2019-03-27T19:15:00.500Z,19.70
2019-03-27T19:17:33.431Z,19.67
2019-03-27T19:20:06.433Z,18.35
2019-03-27T19:22:39.203Z,19.02
2019-03-27T19:25:12.770Z,18.77
2019-03-27T19:27:46.034Z,17.12
2019-03-27T19:30:19.723Z,16.70
2019-03-27T19:32:52.534Z,14.50
2019-03-27T19:35:25.785Z,15.45
2019-03-27T19:37:59.307Z,14.03
2019-03-27T19:40:32.111Z,14.33
2019-03-27T19:43:05.123Z,14.55
2019-03-27T19:45:37.831Z,15.93
2019-03-27T19:48:10.833Z,15.38
2019-03-27T19:50:45.433Z,16.85
2019-03-27T19:53:18.733Z,18.60
2019-03-27T19:55:51.386Z,14.93
2019-03-27T19:58:24.422Z,17.30
2019-03-27T20:03:29.937Z,17.35
2019-03-27T20:06:02.723Z,17.82
2019-03-27T20:08:35.883Z,17.20
2019-03-27T20:11:09.237Z,17.05
2019-03-27T20:13:42.137Z,16.75
2019-03-27T20:16:14.890Z,16.75
2019-03-27T20:18:47.613Z,17.25
2019-03-27T20:21:20.575Z,17.35
2019-03-27T20:23:53.472Z,19.00
2019-03-27T20:26:26.173Z,15.83
2019-03-27T20:28:58.893Z,17.35
2019-03-27T20:31:31.722Z,17.52
2019-03-27T20:34:05.359Z,18.60
2019-03-27T20:36:38.653Z,18.10
2019-03-27T20:39:12.192Z,17.57
2019-03-27T20:41:46.732Z,15.68
2019-03-27T20:44:21.273Z,17.40
2019-03-27T20:46:55.173Z,16.37
2019-03-27T20:49:28.833Z,18.55
2019-03-27T20:52:02.213Z,14.35
2019-03-27T20:54:34.843Z,18.60
2019-03-27T20:57:07.515Z,15.68
2019-03-27T20:59:40.156Z,17.65
2019-03-27T21:02:13.784Z,15.83
2019-03-27T21:04:46.443Z,18.50
2019-03-27T21:07:19.023Z,14.87
2019-03-27T21:09:53.281Z,14.23
2019-03-27T21:12:26.287Z,14.03
2019-03-27T21:14:58.842Z,15.78
2019-03-27T21:17:31.303Z,15.65
2019-03-27T21:20:04.411Z,14.90
2019-03-27T21:22:37.455Z,17.20
2019-03-27T21:25:10.670Z,15.55
2019-03-27T21:27:43.317Z,15.58
2019-03-27T21:30:17.014Z,17.52
2019-03-27T21:32:49.751Z,17.90
2019-03-27T21:35:23.514Z,16.10
2019-03-27T21:37:56.293Z,15.90
2019-03-27T21:40:28.966Z,17.52
2019-03-27T21:43:02.031Z,15.70
2019-03-27T21:45:34.712Z,16.52
2019-03-27T21:48:07.350Z,14.83
2019-03-27T21:50:40.626Z,14.60
2019-03-27T21:53:13.445Z,13.98
2019-03-27T21:55:46.076Z,16.17
2019-03-27T21:58:18.782Z,16.23
2019-03-27T22:00:51.802Z,14.10
2019-03-27T22:03:24.762Z,16.67
2019-03-27T22:05:57.372Z,15.68
2019-03-27T22:08:29.913Z,16.70
2019-03-27T22:11:02.483Z,15.18
2019-03-27T22:13:35.112Z,16.97
2019-03-27T22:16:07.806Z,15.68
2019-03-27T22:18:40.482Z,17.32
2019-03-27T22:21:13.222Z,16.97
2019-03-27T22:23:45.905Z,19.85
2019-03-27T22:26:18.782Z,20.88
2019-03-27T22:28:51.582Z,18.75
2019-03-27T22:31:24.253Z,17.70
2019-03-27T22:33:57.534Z,17.60
2019-03-27T22:36:30.442Z,18.62
2019-03-27T22:39:03.090Z,16.42
2019-03-27T22:41:36.470Z,17.27
2019-03-27T22:44:09.094Z,16.97
2019-03-27T22:46:41.832Z,17.40
2019-03-27T22:49:14.473Z,17.40
2019-03-27T22:51:47.073Z,16.40
2019-03-27T22:54:20.014Z,15.72
2019-03-27T22:56:52.862Z,13.38
2019-03-27T22:59:28.204Z,17.55
2019-03-27T23:02:00.792Z,14.50
2019-03-27T23:04:33.271Z,16.95
2019-03-27T23:07:06.083Z,14.63
2019-03-27T23:09:38.593Z,17.37
2019-03-27T23:12:11.072Z,11.75
2019-03-27T23:14:44.101Z,15.50
2019-03-27T23:17:16.763Z,13.83
2019-03-27T23:19:51.315Z,16.35
2019-03-27T23:22:23.703Z,13.90
2019-03-27T23:24:56.272Z,15.65
2019-03-27T23:27:28.975Z,14.10
2019-03-27T23:30:01.965Z,14.23
2019-03-27T23:32:34.862Z,14.25
2019-03-27T23:35:08.374Z,12.68
2019-03-27T23:37:40.982Z,13.05
2019-03-27T23:40:13.821Z,14.23
2019-03-27T23:42:46.823Z,13.20
2019-03-27T23:45:19.393Z,12.65
2019-03-27T23:47:52.192Z,14.95
2019-03-27T23:50:24.737Z,15.80
2019-03-27T23:52:57.233Z,16.67
2019-03-27T23:55:29.828Z,13.93
2019-03-27T23:58:02.950Z,16.32
